Skip to main content Skip to accessibility
This website is not compatible with your web browser. You should install a newer browser. If you live in Jersey and need help upgrading call the States of Jersey web team on 440099.
Homegov.je

L'înformâtion et les sèrvices publyis pouor I'Île dé Jèrri

  • Choose the service you want to log in to:

  • gov.je

    Update your notification preferences

  • one.gov.je

    Access government and parish services

  • CAESAR

    Clear goods through customs or claim relief

  • Talentlink

    View or update your States of Jersey job application

CI Airfield TAFs

JERSEY - EGJJ

EGJJ 101403Z 1015/1100 18018KT 9999 FEW010 BKN020 TEMPO 1015/1023 19020G30KT 6000 RA BKN010 PROB40 TEMPO 1015/1022 3000 +RA BR BKN005 PROB30 TEMPO 1018/1022 1200 BKN002 BECMG 1020/1022 30018G28KT=

GUERNSEY - EGJB

EGJB 101403Z 1015/1100 19022KT 9999 FEW008 BKN018 TEMPO 1015/1021 20025G35KT 6000 RA BKN008 PROB40 TEMPO 1015/1020 3000 +RA BR BKN004 PROB30 TEMPO 1016/1020 1000 BKN001 BECMG 1019/1021 30018G28KT=

ALDERNEY - EGJA

EGJA 101403Z 1015/1100 19028KT 9999 FEW008 BKN032 TEMPO 1015/1021 19033G45KT 6000 RA BKN008 PROB40 TEMPO 1015/1020 3000 +RA BR BKN004 PROB30 TEMPO 1016/1020 1000 BKN001 BECMG 1019/1021 30020G30KT=

Back to top
rating button